Time;durP1;ratioP1;P1;durP2;ratioP2;P2;SDS_P1;SDS_P2;PMS_P1;PMS_P2;Temp;Humidity;BMP_temperature;BMP_pressure;BME280_temperature;BME280_humidity;BME280_pressure;Samples;Min_cycle;Max_cycle;Signal;HPM_P1;HPM_P2
2022/08/15 00:00:52;;;;;;;10.10;3.17;;;;;;;23.74;60.50;99317.63;20897439;28;20502;-70
2022/08/15 00:10:54;;;;;;;6.20;3.08;;;;;;;23.65;61.25;99312.25;20896791;28;20060;-70
2022/08/15 00:21:17;;;;;;;7.25;3.22;;;;;;;23.54;61.99;99311.34;20901030;28;20060;-70
2022/08/15 00:31:22;;;;;;;8.43;3.47;;;;;;;23.53;62.02;99306.13;20911533;28;20429;-70
2022/08/15 00:41:42;;;;;;;7.25;3.67;;;;;;;23.45;62.44;99328.16;20911439;28;20079;-70
2022/08/15 00:51:43;;;;;;;10.73;3.38;;;;;;;23.38;62.46;99336.81;20911313;28;20118;-70
2022/08/15 01:01:54;;;;;;;5.57;3.30;;;;;;;23.35;62.89;99345.13;20909776;28;20049;-71
2022/08/15 01:12:02;;;;;;;7.70;3.42;;;;;;;23.27;63.08;99346.59;20909680;28;20139;-71
2022/08/15 01:22:04;;;;;;;10.10;4.20;;;;;;;23.22;63.50;99351.47;20908094;28;20049;-71
2022/08/15 01:32:07;;;;;;;9.20;3.90;;;;;;;23.12;64.94;99347.91;20905528;28;20049;-70
2022/08/15 01:42:08;;;;;;;6.78;3.97;;;;;;;23.00;66.35;99338.28;20906474;28;20136;-70
2022/08/15 01:52:09;;;;;;;8.00;3.55;;;;;;;22.93;67.07;99334.41;20906354;28;20048;-70
2022/08/15 02:02:31;;;;;;;7.85;3.83;;;;;;;22.69;74.77;99342.59;20904026;28;20114;-70
2022/08/15 02:12:48;;;;;;;9.18;3.70;;;;;;;22.45;75.90;99345.47;20904324;28;20481;-70
2022/08/15 02:23:09;;;;;;;8.88;3.70;;;;;;;22.32;78.61;99342.09;20903721;28;20053;-70
2022/08/15 02:33:20;;;;;;;7.60;3.85;;;;;;;22.23;84.33;99349.03;20886582;28;20481;-70
2022/08/15 02:43:22;;;;;;;7.57;3.67;;;;;;;21.99;89.38;99351.81;20824381;28;20037;-70
2022/08/15 02:53:23;;;;;;;10.18;3.72;;;;;;;21.56;98.16;99355.22;20818674;28;20103;-69
2022/08/15 03:03:27;;;;;;;8.18;4.35;;;;;;;21.28;100.00;99364.44;20815973;28;20079;-69
2022/08/15 03:13:31;;;;;;;12.20;3.90;;;;;;;21.00;100.00;99357.72;20817020;28;20056;-70
2022/08/15 03:23:48;;;;;;;6.60;3.55;;;;;;;20.72;100.00;99365.09;20816084;28;20469;-70
2022/08/15 03:33:50;;;;;;;9.20;5.20;;;;;;;20.82;100.00;99361.75;20815240;28;20049;-70
2022/08/15 03:43:58;;;;;;;9.50;4.30;;;;;;;20.66;100.00;99362.88;20816003;28;20498;-70
2022/08/15 03:54:00;;;;;;;8.38;4.05;;;;;;;20.49;100.00;99352.63;20815743;28;20385;-70
2022/08/15 04:04:02;;;;;;;7.90;3.78;;;;;;;20.41;100.00;99360.28;20830437;28;20056;-70
2022/08/15 04:14:06;;;;;;;8.25;3.10;;;;;;;20.32;100.00;99369.78;20831184;28;20404;-70
2022/08/15 04:24:27;;;;;;;7.68;3.28;;;;;;;20.22;100.00;99382.91;20831733;28;20486;-70
2022/08/15 04:34:29;;;;;;;6.63;2.85;;;;;;;20.17;100.00;99401.00;20828935;28;20072;-70
2022/08/15 04:44:50;;;;;;;7.20;3.60;;;;;;;20.30;100.00;99400.09;20830225;28;20115;-70
2022/08/15 04:54:52;;;;;;;7.20;3.50;;;;;;;20.10;100.00;99393.53;20828173;28;20184;-70
2022/08/15 05:04:59;;;;;;;7.20;3.60;;;;;;;20.06;100.00;99386.75;20827072;28;20061;-70
2022/08/15 05:15:01;;;;;;;8.23;3.63;;;;;;;20.09;100.00;99390.03;20827439;28;20072;-68
2022/08/15 05:25:02;;;;;;;6.82;3.63;;;;;;;19.88;100.00;99380.91;20825038;28;20045;-70
2022/08/15 05:35:04;;;;;;;6.50;3.95;;;;;;;19.84;100.00;99387.44;20823850;28;20064;-70
2022/08/15 05:45:05;;;;;;;7.85;4.07;;;;;;;19.78;100.00;99390.50;20823734;28;20046;-69
2022/08/15 05:55:09;;;;;;;8.32;4.55;;;;;;;20.08;100.00;99406.97;20822436;28;20061;-69
2022/08/15 06:05:11;;;;;;;8.57;4.93;;;;;;;20.11;100.00;99413.84;20820804;28;20057;-69
2022/08/15 06:15:12;;;;;;;8.95;4.65;;;;;;;20.20;100.00;99406.06;20820498;28;20046;-70
2022/08/15 06:25:14;;;;;;;7.70;4.45;;;;;;;20.27;100.00;99405.66;20819124;28;20108;-68
2022/08/15 06:35:15;;;;;;;6.85;3.75;;;;;;;20.30;100.00;99416.03;20818448;28;20057;-69
2022/08/15 06:45:17;;;;;;;6.25;3.42;;;;;;;20.63;100.00;99424.28;20819650;28;20049;-68
2022/08/15 06:55:19;;;;;;;6.35;2.50;;;;;;;20.51;100.00;99425.19;20821495;28;20131;-68
2022/08/15 07:05:22;;;;;;;8.20;2.90;;;;;;;20.60;100.00;99431.63;20817798;28;20080;-69
2022/08/15 07:15:35;;;;;;;4.40;2.50;;;;;;;20.61;100.00;99430.69;20860793;28;20513;-69
2022/08/15 07:25:37;;;;;;;5.05;2.60;;;;;;;21.02;100.00;99430.28;20848967;28;20045;-69
2022/08/15 07:35:38;;;;;;;4.95;2.63;;;;;;;21.32;100.00;99418.31;20848013;28;20046;-69
2022/08/15 07:45:41;;;;;;;6.05;3.08;;;;;;;21.94;100.00;99425.94;20850396;28;20061;-69
2022/08/15 07:55:45;;;;;;;6.43;2.95;;;;;;;22.02;100.00;99426.22;20888992;28;20048;-69
2022/08/15 08:06:06;;;;;;;6.35;3.20;;;;;;;22.70;98.21;99419.84;20896218;28;20098;-69
2022/08/15 08:16:28;;;;;;;6.13;2.65;;;;;;;23.02;94.64;99422.59;20897388;28;20057;-69
2022/08/15 08:26:32;;;;;;;6.82;2.78;;;;;;;23.13;89.47;99423.50;20896349;28;20053;-68
2022/08/15 08:36:34;;;;;;;6.47;2.60;;;;;;;24.16;82.61;99429.84;20895950;28;20049;-69
2022/08/15 08:46:37;;;;;;;6.03;2.47;;;;;;;24.27;77.88;99440.44;20907079;28;20079;-68
2022/08/15 08:56:40;;;;;;;3.78;2.30;;;;;;;23.79;75.80;99443.72;20910733;28;20045;-67
2022/08/15 09:06:42;;;;;;;3.67;2.10;;;;;;;23.34;75.11;99447.59;20909002;28;20049;-67
2022/08/15 09:16:44;;;;;;;5.05;2.20;;;;;;;24.00;70.49;99445.50;20909226;28;20049;-67
2022/08/15 09:26:46;;;;;;;5.72;2.40;;;;;;;23.60;73.99;99448.06;20908448;28;20055;-67
2022/08/15 09:36:47;;;;;;;5.55;2.80;;;;;;;23.67;74.30;99454.63;20906308;28;20052;-67
2022/08/15 09:46:49;;;;;;;5.82;2.92;;;;;;;24.13;70.92;99443.47;20906496;28;20486;-68
2022/08/15 09:56:50;;;;;;;6.25;2.65;;;;;;;24.30;66.04;99426.78;20903254;28;20053;-69
2022/08/15 10:06:52;;;;;;;5.22;2.40;;;;;;;24.17;66.53;99436.88;20904213;28;20049;-70
2022/08/15 10:16:54;;;;;;;6.55;2.83;;;;;;;24.55;62.16;99413.94;20904625;28;20052;-69
2022/08/15 10:26:55;;;;;;;4.40;2.25;;;;;;;25.00;59.99;99394.69;20899948;28;20045;-68
2022/08/15 10:36:59;;;;;;;6.13;2.53;;;;;;;24.54;59.70;99396.19;20901418;28;20055;-68
2022/08/15 10:47:01;;;;;;;4.37;2.40;;;;;;;24.70;59.04;99387.63;20901053;28;20079;-68
2022/08/15 10:57:04;;;;;;;4.53;2.20;;;;;;;25.41;54.57;99379.31;20900920;28;20051;-68
2022/08/15 11:07:10;;;;;;;5.80;2.30;;;;;;;25.61;52.82;99372.94;20899476;28;20040;-68
2022/08/15 11:17:14;;;;;;;4.93;2.70;;;;;;;26.05;51.03;99349.06;20896627;28;20053;-70
2022/08/15 11:27:16;;;;;;;6.23;2.47;;;;;;;26.69;47.93;99350.84;20896146;28;20106;-70
2022/08/15 11:37:24;;;;;;;6.03;2.33;;;;;;;25.99;48.93;99336.28;20895557;28;20520;-70
2022/08/15 11:47:25;;;;;;;6.22;2.38;;;;;;;26.72;46.66;99339.78;20919326;28;20048;-70
2022/08/15 11:57:30;;;;;;;5.93;2.42;;;;;;;25.99;48.38;99336.28;20977403;28;20052;-70
2022/08/15 12:07:51;;;;;;;5.53;2.83;;;;;;;26.48;46.41;99316.22;20975993;28;20056;-70
2022/08/15 12:17:55;;;;;;;4.53;2.63;;;;;;;26.41;46.98;99314.28;20983497;28;20052;-70
2022/08/15 12:28:08;;;;;;;5.78;2.67;;;;;;;26.06;47.86;99335.53;20966480;28;20045;-70
2022/08/15 12:38:29;;;;;;;5.55;3.03;;;;;;;26.97;46.15;99340.00;20910533;28;20095;-69
2022/08/15 12:48:34;;;;;;;4.37;2.50;;;;;;;27.02;46.00;99330.50;20910622;28;20053;-67
2022/08/15 12:58:36;;;;;;;4.75;2.53;;;;;;;27.54;43.84;99337.78;20909850;28;20044;-67
2022/08/15 13:08:38;;;;;;;4.75;2.72;;;;;;;27.04;45.29;99324.97;20908160;28;20053;-67
2022/08/15 13:18:41;;;;;;;7.27;2.90;;;;;;;26.84;45.60;99338.56;20909026;28;20428;-67
2022/08/15 13:28:44;;;;;;;7.30;3.47;;;;;;;25.66;53.55;99340.31;20907331;28;20440;-67
2022/08/15 13:38:47;;;;;;;8.73;3.70;;;;;;;24.81;58.80;99358.88;20905684;28;20048;-67
2022/08/15 13:48:57;;;;;;;8.70;3.10;;;;;;;24.49;58.16;99351.13;20915539;28;20128;-67
2022/08/15 13:58:59;;;;;;;8.48;3.22;;;;;;;24.69;57.12;99338.59;20902714;28;20462;-67
2022/08/15 14:09:02;;;;;;;7.93;3.55;;;;;;;24.60;61.43;99347.47;20908275;28;20053;-67
2022/08/15 14:19:18;;;;;;;13.43;4.63;;;;;;;24.46;65.93;99350.53;20900420;28;20049;-67
2022/08/15 14:29:41;;;;;;;9.32;4.80;;;;;;;25.21;62.72;99368.63;20902433;28;20056;-67
2022/08/15 14:39:48;;;;;;;6.95;4.72;;;;;;;25.38;61.66;99425.16;20900861;28;20055;-67
2022/08/15 14:49:52;;;;;;;10.07;3.80;;;;;;;25.57;55.13;99411.72;20901578;28;20060;-67
2022/08/15 15:00:14;;;;;;;4.93;3.03;;;;;;;25.47;53.49;99406.38;20900325;28;20111;-67
2022/08/15 15:10:24;;;;;;;8.05;2.80;;;;;;;25.29;53.05;99400.91;20900657;28;20056;-67
2022/08/15 15:20:27;;;;;;;4.93;1.95;;;;;;;25.06;51.83;99386.09;20900580;28;20048;-67
2022/08/15 15:30:47;;;;;;;3.83;1.75;;;;;;;25.28;50.38;99375.09;20897601;28;20445;-67
2022/08/15 15:40:48;;;;;;;5.15;1.98;;;;;;;25.01;52.83;99362.44;20899197;28;20080;-67
2022/08/15 15:50:50;;;;;;;3.97;2.63;;;;;;;24.99;55.26;99361.69;20900532;28;20049;-67
2022/08/15 16:00:51;;;;;;;4.22;2.42;;;;;;;24.99;57.62;99379.59;20914333;28;20049;-67
2022/08/15 16:10:54;;;;;;;6.65;2.60;;;;;;;24.51;60.21;99380.41;20873593;28;20051;-66
2022/08/15 16:20:56;;;;;;;5.63;2.75;;;;;;;24.96;58.61;99382.56;20913598;28;20076;-67
2022/08/15 16:30:57;;;;;;;4.47;2.20;;;;;;;24.63;60.28;99384.66;20898872;28;20049;-68
2022/08/15 16:40:59;;;;;;;4.13;2.15;;;;;;;25.12;57.40;99393.59;20896162;28;20583;-67
2022/08/15 16:51:05;;;;;;;5.25;2.22;;;;;;;25.26;57.42;99384.28;20907282;28;20053;-67
2022/08/15 17:01:07;;;;;;;5.57;2.63;;;;;;;25.01;58.68;99383.84;20892930;28;20048;-68
2022/08/15 17:11:14;;;;;;;4.05;2.05;;;;;;;25.12;58.59;99385.56;20895052;28;20106;-67
2022/08/15 17:21:19;;;;;;;5.15;1.98;;;;;;;24.65;58.10;99387.19;20891992;28;20045;-67
2022/08/15 17:31:21;;;;;;;5.13;2.05;;;;;;;24.63;57.71;99405.22;20889987;28;20596;-68
2022/08/15 17:41:23;;;;;;;5.57;2.20;;;;;;;24.41;56.96;99408.97;20891156;28;20544;-68
2022/08/15 17:51:24;;;;;;;4.38;1.70;;;;;;;23.87;58.46;99419.00;20892144;28;20128;-67
2022/08/15 18:01:33;;;;;;;4.45;2.08;;;;;;;23.51;59.33;99422.97;20889970;28;20044;-68
2022/08/15 18:11:34;;;;;;;3.83;1.70;;;;;;;23.19;60.72;99445.25;20885968;28;20148;-67
2022/08/15 18:21:36;;;;;;;4.20;1.90;;;;;;;22.72;64.33;99460.63;20890003;28;20504;-68
2022/08/15 18:31:41;;;;;;;5.05;2.10;;;;;;;22.45;66.55;99473.50;20888268;28;20049;-67
2022/08/15 18:41:43;;;;;;;4.68;1.70;;;;;;;22.16;68.50;99482.00;20894677;28;20144;-67
2022/08/15 18:51:44;;;;;;;3.28;1.63;;;;;;;21.88;70.48;99504.56;20854450;28;20049;-67
2022/08/15 19:01:56;;;;;;;5.45;2.00;;;;;;;21.71;73.51;99513.88;20882150;28;20072;-67
2022/08/15 19:11:58;;;;;;;5.05;1.90;;;;;;;21.46;76.99;99536.19;20911578;28;20044;-67
2022/08/15 19:21:59;;;;;;;4.50;1.65;;;;;;;21.34;79.80;99549.56;20974004;28;20254;-67
2022/08/15 19:32:02;;;;;;;3.92;1.77;;;;;;;21.24;82.29;99552.84;20974403;28;20493;-67
2022/08/15 19:42:03;;;;;;;4.10;1.65;;;;;;;20.97;86.40;99552.19;20973342;28;20098;-66
2022/08/15 19:52:07;;;;;;;6.55;2.92;;;;;;;20.80;89.65;99555.25;20901437;28;20053;-67
2022/08/15 20:02:09;;;;;;;15.32;9.65;;;;;;;20.47;95.09;99559.31;20889508;28;20246;-66
2022/08/15 20:12:27;;;;;;;7.47;3.55;;;;;;;20.35;98.22;99562.78;20911131;28;20044;-67
2022/08/15 20:22:31;;;;;;;4.57;2.10;;;;;;;20.29;99.42;99573.84;20969951;28;20056;-69
2022/08/15 20:32:36;;;;;;;4.18;2.38;;;;;;;20.23;100.00;99575.13;20962705;28;20048;-69
2022/08/15 20:42:46;;;;;;;13.80;3.05;;;;;;;20.18;100.00;99578.09;20846188;28;20068;-70
2022/08/15 20:52:49;;;;;;;6.35;2.35;;;;;;;20.02;100.00;99588.06;20902873;28;20135;-69
2022/08/15 21:03:00;;;;;;;4.95;2.80;;;;;;;19.93;100.00;99594.00;20899049;28;20131;-70
2022/08/15 21:13:02;;;;;;;4.97;3.10;;;;;;;19.78;100.00;99600.34;20929534;28;20059;-70
2022/08/15 21:23:06;;;;;;;7.57;2.95;;;;;;;19.70;100.00;99607.03;20984458;28;20052;-70
2022/08/15 21:33:08;;;;;;;5.50;2.60;;;;;;;19.63;100.00;99611.03;20982549;28;20507;-69
2022/08/15 21:43:09;;;;;;;5.45;2.80;;;;;;;19.57;100.00;99611.41;20982977;28;20856;-70
2022/08/15 21:53:10;;;;;;;6.70;3.20;;;;;;;19.41;100.00;99614.22;20900087;28;20049;-70
2022/08/15 22:03:13;;;;;;;6.78;3.38;;;;;;;19.32;100.00;99613.94;20870332;28;20049;-71
2022/08/15 22:13:15;;;;;;;4.95;2.75;;;;;;;19.29;100.00;99630.91;20823410;28;20716;-70
2022/08/15 22:23:17;;;;;;;6.10;2.90;;;;;;;19.30;100.00;99645.03;20822368;28;20049;-70
2022/08/15 22:33:18;;;;;;;5.28;2.78;;;;;;;19.04;100.00;99652.84;20820658;28;20099;-69
2022/08/15 22:43:19;;;;;;;5.03;2.85;;;;;;;19.00;100.00;99669.91;20820971;28;20057;-70
2022/08/15 22:53:22;;;;;;;5.43;2.85;;;;;;;19.11;100.00;99664.75;20820287;28;20132;-71
2022/08/15 23:03:23;;;;;;;5.63;2.75;;;;;;;19.06;100.00;99663.34;20818329;28;20049;-70
2022/08/15 23:13:38;;;;;;;;;;;;;;;18.91;100.00;99660.72;20819039;28;20050;-70
2022/08/15 23:23:59;;;;;;;5.75;3.38;;;;;;;18.93;100.00;99650.88;20817980;28;19928;-70
2022/08/15 23:34:03;;;;;;;5.33;2.87;;;;;;;18.98;100.00;99647.94;20815973;28;20538;-70
2022/08/15 23:44:06;;;;;;;4.57;2.83;;;;;;;19.02;100.00;99653.88;20816515;28;20052;-70
2022/08/15 23:54:18;;;;;;;6.63;3.17;;;;;;;18.98;100.00;99645.28;20816839;28;20056;-70
